createdAt,value
2023-03-04T00:00:59.690Z,41.95
2023-03-04T00:03:27.410Z,43.53
2023-03-04T00:05:55.065Z,42.45
2023-03-04T00:08:22.636Z,40.88
2023-03-04T00:10:50.184Z,42.55
2023-03-04T00:13:20.401Z,44.33
2023-03-04T00:15:47.980Z,44.35
2023-03-04T00:18:17.316Z,41.10
2023-03-04T00:20:44.979Z,43.00
2023-03-04T00:23:12.637Z,39.80
2023-03-04T00:25:43.209Z,41.53
2023-03-04T00:28:11.289Z,41.80
2023-03-04T00:30:38.872Z,40.58
2023-03-04T00:33:06.509Z,41.90
2023-03-04T00:35:35.558Z,42.25
2023-03-04T00:38:03.184Z,42.85
2023-03-04T00:40:30.769Z,40.38
2023-03-04T00:42:58.356Z,40.17
2023-03-04T00:45:25.968Z,42.47
2023-03-04T00:47:53.543Z,40.47
2023-03-04T00:50:21.300Z,42.53
2023-03-04T00:52:50.208Z,45.55
2023-03-04T00:55:17.975Z,41.10
2023-03-04T00:57:45.566Z,42.83
2023-03-04T01:00:14.447Z,40.17
2023-03-04T01:02:42.248Z,41.15
2023-03-04T01:05:10.806Z,40.92
2023-03-04T01:07:38.398Z,39.72
2023-03-04T01:10:08.630Z,40.65
2023-03-04T01:12:36.211Z,45.55
2023-03-04T01:15:05.138Z,39.38
2023-03-04T01:17:32.791Z,37.03
2023-03-04T01:20:00.426Z,41.67
2023-03-04T01:22:28.020Z,39.97
2023-03-04T01:24:55.622Z,41.80
2023-03-04T01:27:24.562Z,38.85
2023-03-04T01:29:52.120Z,41.78
2023-03-04T01:32:19.835Z,44.03
2023-03-04T01:34:47.469Z,51.47
2023-03-04T01:37:15.104Z,45.90
2023-03-04T01:39:42.762Z,42.28
2023-03-04T01:42:18.354Z,51.80
2023-03-04T01:44:48.395Z,42.22
2023-03-04T01:47:16.480Z,40.83
2023-03-04T01:49:44.116Z,37.40
2023-03-04T01:52:12.096Z,40.72
2023-03-04T01:54:40.122Z,40.85
2023-03-04T01:57:17.850Z,36.55
2023-03-04T01:59:47.112Z,38.53
2023-03-04T02:02:15.412Z,36.40
2023-03-04T02:04:43.737Z,40.72
2023-03-04T02:07:11.364Z,40.42
2023-03-04T02:09:38.946Z,38.67
2023-03-04T02:12:06.896Z,37.45
2023-03-04T02:14:34.487Z,39.47
2023-03-04T02:17:03.450Z,34.47
2023-03-04T02:19:40.861Z,36.00
2023-03-04T02:22:08.493Z,38.50
2023-03-04T02:24:38.268Z,35.10
2023-03-04T02:27:07.253Z,36.08
2023-03-04T02:29:34.882Z,36.45
2023-03-04T02:32:02.543Z,37.10
2023-03-04T02:34:32.180Z,34.90
2023-03-04T02:37:00.258Z,37.25
2023-03-04T02:39:32.500Z,34.20
2023-03-04T02:42:00.767Z,33.60
2023-03-04T02:44:31.426Z,32.05
2023-03-04T02:46:59.679Z,35.95
2023-03-04T02:49:29.159Z,31.85
2023-03-04T02:52:00.948Z,34.47
2023-03-04T02:54:28.694Z,34.78
2023-03-04T02:56:59.810Z,33.33
2023-03-04T02:59:28.922Z,32.00
2023-03-04T03:01:56.679Z,34.00
2023-03-04T03:04:25.116Z,31.20
2023-03-04T03:06:52.845Z,33.10
2023-03-04T03:09:20.774Z,32.25
2023-03-04T03:11:48.401Z,33.08
2023-03-04T03:14:16.163Z,33.17
2023-03-04T03:16:45.130Z,35.33
2023-03-04T03:19:12.754Z,31.73
2023-03-04T03:21:40.350Z,30.02
2023-03-04T03:24:08.610Z,29.02
2023-03-04T03:26:36.236Z,31.20
2023-03-04T03:29:03.932Z,31.40
2023-03-04T03:31:31.578Z,31.77
2023-03-04T03:34:00.566Z,29.73
2023-03-04T03:36:28.156Z,30.08
2023-03-04T03:38:55.796Z,31.75
2023-03-04T03:41:23.376Z,29.90
2023-03-04T03:43:50.981Z,30.23
2023-03-04T03:46:18.572Z,29.20
2023-03-04T03:48:46.144Z,30.13
2023-03-04T03:51:15.057Z,28.27
2023-03-04T03:53:42.659Z,30.02
2023-03-04T03:56:10.216Z,28.92
2023-03-04T03:58:37.786Z,28.75
2023-03-04T04:01:05.618Z,29.65
2023-03-04T04:03:33.241Z,31.10
2023-03-04T04:06:00.841Z,28.73
2023-03-04T04:08:29.842Z,33.38
2023-03-04T04:10:57.435Z,31.65
2023-03-04T04:13:25.051Z,30.55
2023-03-04T04:15:52.651Z,32.05
2023-03-04T04:18:20.353Z,31.27
2023-03-04T04:20:48.236Z,32.13
2023-03-04T04:23:15.871Z,30.58
2023-03-04T04:25:44.790Z,29.77
2023-03-04T04:28:12.399Z,30.77
2023-03-04T04:30:40.193Z,29.40
2023-03-04T04:33:07.922Z,33.25
2023-03-04T04:35:36.618Z,33.83
2023-03-04T04:38:04.226Z,29.52
2023-03-04T04:40:32.022Z,31.70
2023-03-04T04:43:00.948Z,31.75
2023-03-04T04:45:28.714Z,30.25
2023-03-04T04:47:57.478Z,29.10
2023-03-04T04:50:25.551Z,32.03
2023-03-04T04:52:53.427Z,27.08
2023-03-04T04:55:21.057Z,29.58
2023-03-04T04:57:48.652Z,30.13
2023-03-04T05:00:19.181Z,32.30
2023-03-04T05:02:47.086Z,28.35
2023-03-04T05:05:14.716Z,29.70
2023-03-04T05:07:42.336Z,26.85
2023-03-04T05:10:11.338Z,29.48
2023-03-04T05:12:39.088Z,29.45
2023-03-04T05:15:07.485Z,29.75
2023-03-04T05:17:36.452Z,26.45
2023-03-04T05:20:04.497Z,27.33
2023-03-04T05:22:32.094Z,28.25
2023-03-04T05:24:59.710Z,28.25
2023-03-04T05:27:27.323Z,29.58
2023-03-04T05:29:55.618Z,29.75
2023-03-04T05:32:23.337Z,28.80
2023-03-04T05:34:52.334Z,30.45
2023-03-04T05:37:19.966Z,29.65
2023-03-04T05:39:47.570Z,27.58
2023-03-04T05:42:15.197Z,29.40
2023-03-04T05:44:42.811Z,30.27
2023-03-04T05:47:10.405Z,26.48
2023-03-04T05:49:38.070Z,29.05
2023-03-04T05:52:07.052Z,30.17
2023-03-04T05:54:34.714Z,29.00
2023-03-04T05:57:02.455Z,28.85
2023-03-04T05:59:30.083Z,29.42
2023-03-04T06:01:57.699Z,28.63
2023-03-04T06:04:25.437Z,28.02
2023-03-04T06:06:53.066Z,28.13
2023-03-04T06:09:22.125Z,29.65
2023-03-04T06:11:49.777Z,28.58
2023-03-04T06:14:17.605Z,28.92
2023-03-04T06:16:45.227Z,26.85
2023-03-04T06:19:12.844Z,28.00
2023-03-04T06:21:40.460Z,29.25
2023-03-04T06:24:08.107Z,29.38
2023-03-04T06:26:37.066Z,29.50
2023-03-04T06:29:05.641Z,31.75
2023-03-04T06:31:33.293Z,30.23
2023-03-04T06:34:00.959Z,31.17
2023-03-04T06:36:28.599Z,32.90
2023-03-04T06:38:56.270Z,32.88
2023-03-04T06:41:23.872Z,31.23
2023-03-04T06:43:54.671Z,32.17
2023-03-04T06:46:22.345Z,32.25
2023-03-04T06:48:50.225Z,33.92
2023-03-04T06:51:18.065Z,31.83
2023-03-04T06:53:45.714Z,35.22
2023-03-04T06:56:16.035Z,34.65
2023-03-04T06:58:43.689Z,36.72
2023-03-04T07:01:17.190Z,35.42
2023-03-04T07:03:45.663Z,36.50
2023-03-04T07:06:14.046Z,36.95
2023-03-04T07:08:42.164Z,38.17
2023-03-04T07:11:09.837Z,34.20
2023-03-04T07:13:38.478Z,36.78
2023-03-04T07:16:06.927Z,37.05
2023-03-04T07:18:37.057Z,34.58
2023-03-04T07:21:05.580Z,33.72
2023-03-04T07:23:33.655Z,35.25
2023-03-04T07:26:01.361Z,35.38
2023-03-04T07:28:28.964Z,35.42
2023-03-04T07:30:56.586Z,32.85
2023-03-04T07:33:24.252Z,36.83
2023-03-04T07:36:00.797Z,36.85
2023-03-04T07:38:28.436Z,36.15
2023-03-04T07:40:57.275Z,36.40
2023-03-04T07:43:24.977Z,37.97
2023-03-04T07:45:52.699Z,40.22
2023-03-04T07:48:20.340Z,38.15
2023-03-04T07:50:47.920Z,36.95
2023-03-04T07:53:16.871Z,40.38
2023-03-04T07:55:44.546Z,37.30
2023-03-04T07:58:12.199Z,40.28
2023-03-04T08:00:41.365Z,37.47
2023-03-04T08:03:08.983Z,41.13
2023-03-04T08:05:36.687Z,39.67
2023-03-04T08:08:04.523Z,39.28
2023-03-04T08:10:33.549Z,38.45
2023-03-04T08:13:01.180Z,38.88
2023-03-04T08:15:32.821Z,40.80
2023-03-04T08:18:00.468Z,38.60
2023-03-04T08:20:28.246Z,39.22
2023-03-04T08:22:55.851Z,39.90
2023-03-04T08:25:23.499Z,36.72
2023-03-04T08:27:52.496Z,37.22
2023-03-04T08:30:20.318Z,36.05
2023-03-04T08:32:48.019Z,38.78
2023-03-04T08:35:15.697Z,36.22
2023-03-04T08:37:43.479Z,36.28
2023-03-04T08:40:12.748Z,38.75
2023-03-04T08:42:40.343Z,37.65
2023-03-04T08:45:10.655Z,38.17
2023-03-04T08:47:38.713Z,38.13
2023-03-04T08:50:08.040Z,38.45
2023-03-04T08:52:35.689Z,41.20
2023-03-04T08:55:03.340Z,41.45
2023-03-04T08:57:30.982Z,41.35
2023-03-04T08:59:58.582Z,39.35
2023-03-04T09:02:27.654Z,40.90
2023-03-04T09:04:55.263Z,39.97
2023-03-04T09:07:22.869Z,44.20
2023-03-04T09:09:50.456Z,41.60
2023-03-04T09:12:18.096Z,39.13
2023-03-04T09:14:45.742Z,41.55
2023-03-04T09:17:13.475Z,42.13
2023-03-04T09:19:42.473Z,39.72
2023-03-04T09:22:10.161Z,42.63
2023-03-04T09:24:37.785Z,40.85
2023-03-04T09:27:05.529Z,41.00
2023-03-04T09:29:33.174Z,40.55
2023-03-04T09:32:01.886Z,40.75
2023-03-04T09:34:29.634Z,39.08
2023-03-04T09:36:58.632Z,40.28
2023-03-04T09:39:26.283Z,39.22
2023-03-04T09:41:57.247Z,36.83
2023-03-04T09:44:27.506Z,37.70
2023-03-04T09:46:58.261Z,36.08
2023-03-04T09:49:26.596Z,35.45
2023-03-04T09:52:00.328Z,35.92
2023-03-04T09:54:52.078Z,37.28
2023-03-04T09:57:27.974Z,35.38
2023-03-04T10:00:02.723Z,35.67
2023-03-04T10:02:38.781Z,34.92
2023-03-04T10:05:07.536Z,34.55
2023-03-04T10:07:39.690Z,36.38
2023-03-04T10:12:37.328Z,32.35
2023-03-04T10:15:08.664Z,34.97
2023-03-04T10:17:38.749Z,35.53
2023-03-04T10:20:09.077Z,34.92
2023-03-04T10:22:42.216Z,37.15
2023-03-04T10:25:18.054Z,34.92
2023-03-04T10:27:51.248Z,35.00
2023-03-04T10:30:24.893Z,36.58
2023-03-04T10:32:52.477Z,33.03
2023-03-04T10:35:21.748Z,33.15
2023-03-04T10:37:51.899Z,32.95
2023-03-04T10:40:22.132Z,33.55
2023-03-04T10:42:50.375Z,33.00
2023-03-04T10:45:23.291Z,33.13
2023-03-04T10:47:55.203Z,31.40
2023-03-04T10:50:24.343Z,34.33
2023-03-04T10:52:55.602Z,32.53
2023-03-04T10:55:25.140Z,33.77
2023-03-04T10:57:55.212Z,32.30
2023-03-04T11:00:31.872Z,32.92
2023-03-04T11:03:23.640Z,31.60
2023-03-04T11:05:51.607Z,33.40
2023-03-04T11:08:22.291Z,32.03
2023-03-04T11:10:52.195Z,31.17
2023-03-04T11:13:22.266Z,34.22
2023-03-04T11:15:52.573Z,33.80
2023-03-04T11:18:21.820Z,35.83
2023-03-04T11:20:50.853Z,33.17
2023-03-04T11:23:23.637Z,34.25
2023-03-04T11:25:53.981Z,34.40
2023-03-04T11:28:25.814Z,34.58
2023-03-04T11:30:56.289Z,34.40
2023-03-04T11:33:27.831Z,33.03
2023-03-04T11:36:00.321Z,33.90
2023-03-04T11:38:33.857Z,34.20
2023-03-04T11:41:04.944Z,35.63
2023-03-04T11:43:35.879Z,35.60
2023-03-04T11:46:39.632Z,35.38
2023-03-04T11:49:18.420Z,35.88
2023-03-04T11:51:50.876Z,37.63
2023-03-04T11:54:24.859Z,36.90
2023-03-04T11:56:54.529Z,35.35
2023-03-04T11:59:50.912Z,35.28
2023-03-04T12:02:20.428Z,40.13
2023-03-04T12:05:08.692Z,37.22
2023-03-04T12:07:44.756Z,36.42
2023-03-04T12:10:23.862Z,35.55
2023-03-04T12:13:03.401Z,37.95
2023-03-04T13:01:15.909Z,36.45
2023-03-04T13:03:47.146Z,39.58
2023-03-04T13:06:24.355Z,41.70
2023-03-04T13:08:59.189Z,38.00
2023-03-04T13:11:52.603Z,36.40
2023-03-04T13:14:32.210Z,38.15
2023-03-04T13:17:02.699Z,40.22
2023-03-04T13:20:12.004Z,37.28
2023-03-04T13:22:54.296Z,39.67
2023-03-04T13:25:42.325Z,38.92
2023-03-04T13:28:35.372Z,37.53
2023-03-04T13:31:12.515Z,36.53
2023-03-04T13:33:53.569Z,38.75
2023-03-04T13:36:44.825Z,35.22
2023-03-04T13:39:30.724Z,36.35
2023-03-04T13:41:59.260Z,34.25
2023-03-04T13:44:51.966Z,35.28
2023-03-04T13:47:21.473Z,36.58
2023-03-04T13:49:50.468Z,35.22
2023-03-04T13:52:48.056Z,34.22
2023-03-04T13:55:32.479Z,36.22
2023-03-04T13:58:00.159Z,33.90
2023-03-04T14:00:28.628Z,35.45
2023-03-04T14:02:56.893Z,34.17
2023-03-04T14:05:25.865Z,33.90
2023-03-04T14:07:53.464Z,34.50
2023-03-04T14:10:24.087Z,32.35
2023-03-04T14:12:53.632Z,35.10
2023-03-04T14:15:24.232Z,35.88
2023-03-04T14:17:54.001Z,34.88
2023-03-04T14:20:27.402Z,34.92
2023-03-04T14:22:55.387Z,33.17
2023-03-04T14:25:25.349Z,34.42
2023-03-04T14:28:03.629Z,34.30
2023-03-04T14:30:42.352Z,34.33
2023-03-04T14:33:17.368Z,32.20
2023-03-04T14:35:49.508Z,32.45
2023-03-04T14:40:47.474Z,31.55
2023-03-04T14:43:17.386Z,33.88
2023-03-04T14:45:46.631Z,32.90
2023-03-04T14:48:26.170Z,33.67
2023-03-04T14:50:56.375Z,32.65
2023-03-04T14:53:25.270Z,32.67
2023-03-04T14:55:57.767Z,30.80
2023-03-04T14:58:27.427Z,33.92
2023-03-04T15:01:15.335Z,33.00
2023-03-04T15:03:44.383Z,29.42
2023-03-04T15:06:19.996Z,29.70
2023-03-04T15:08:48.068Z,29.98
2023-03-04T15:11:23.291Z,29.60
2023-03-04T15:13:53.490Z,28.88
2023-03-04T15:16:23.763Z,27.90
2023-03-04T15:19:03.265Z,26.45
2023-03-04T15:21:36.705Z,26.83
2023-03-04T15:24:05.231Z,27.75
2023-03-04T15:26:33.999Z,25.70
2023-03-04T15:29:01.679Z,26.95
2023-03-04T15:31:30.016Z,24.33
2023-03-04T15:33:57.587Z,25.42
2023-03-04T15:36:25.449Z,29.45
2023-03-04T15:38:54.644Z,25.90
2023-03-04T15:41:24.308Z,25.30
2023-03-04T15:43:52.258Z,24.95
2023-03-04T15:46:20.244Z,25.40
2023-03-04T15:48:48.570Z,23.52
2023-03-04T15:51:18.240Z,26.38
2023-03-04T15:53:48.286Z,24.80
2023-03-04T15:56:18.879Z,25.48
2023-03-04T15:58:48.099Z,24.40
2023-03-04T16:01:17.432Z,22.67
2023-03-04T16:03:45.079Z,23.95
2023-03-04T16:06:13.535Z,22.75
2023-03-04T16:08:42.095Z,23.83
2023-03-04T16:11:13.271Z,23.33
2023-03-04T16:13:42.198Z,23.60
2023-03-04T16:16:12.003Z,22.10
2023-03-04T16:18:40.422Z,21.88
2023-03-04T16:21:08.554Z,21.92
2023-03-04T16:23:39.786Z,24.23
2023-03-04T16:26:13.407Z,23.03
2023-03-04T16:28:42.473Z,20.98
2023-03-04T16:31:12.115Z,23.15
2023-03-04T16:33:39.916Z,23.05
2023-03-04T16:36:13.546Z,21.33
2023-03-04T16:38:41.258Z,25.30
2023-03-04T16:41:13.009Z,22.90
2023-03-04T16:43:42.866Z,24.48
2023-03-04T16:46:13.746Z,21.98
2023-03-04T16:48:41.706Z,23.95
2023-03-04T16:51:14.132Z,23.10
2023-03-04T16:53:43.405Z,22.27
2023-03-04T16:56:14.442Z,23.00
2023-03-04T16:58:44.070Z,22.55
2023-03-04T17:01:15.810Z,23.65
2023-03-04T17:03:43.578Z,24.52
2023-03-04T17:06:11.488Z,24.48
2023-03-04T17:08:39.155Z,23.08
2023-03-04T17:11:06.892Z,22.88
2023-03-04T17:13:34.673Z,23.23
2023-03-04T17:16:04.059Z,22.80
2023-03-04T17:18:31.727Z,21.75
2023-03-04T17:21:03.451Z,21.38
2023-03-04T17:23:31.076Z,22.67
2023-03-04T17:25:59.485Z,20.20
2023-03-04T17:28:28.042Z,21.35
2023-03-04T17:30:55.660Z,23.80
2023-03-04T17:33:24.616Z,22.85
2023-03-04T17:35:52.306Z,24.98
2023-03-04T17:38:20.002Z,25.15
2023-03-04T17:40:47.623Z,23.35
2023-03-04T17:43:15.306Z,24.23
2023-03-04T17:45:43.308Z,23.08
2023-03-04T17:48:14.969Z,26.40
2023-03-04T17:50:50.552Z,25.52
2023-03-04T17:53:18.484Z,25.13
2023-03-04T17:55:50.323Z,24.90
2023-03-04T17:58:17.919Z,23.83
2023-03-04T18:00:45.629Z,23.33
2023-03-04T18:03:16.269Z,24.35
2023-03-04T18:05:44.006Z,25.55
2023-03-04T18:08:12.955Z,24.58
2023-03-04T18:10:40.512Z,25.33
2023-03-04T18:13:08.570Z,23.55
2023-03-04T18:15:36.223Z,23.38
2023-03-04T18:18:04.889Z,28.52
2023-03-04T18:20:32.729Z,26.23
2023-03-04T18:23:00.857Z,35.60
2023-03-04T18:25:29.808Z,33.13
2023-03-04T18:27:57.628Z,27.35
2023-03-04T18:30:27.356Z,25.58
2023-03-04T18:32:55.622Z,28.10
2023-03-04T18:35:23.750Z,28.55
2023-03-04T18:37:51.444Z,25.67
2023-03-04T18:40:19.443Z,26.40
2023-03-04T18:42:48.636Z,26.15
2023-03-04T18:45:17.104Z,24.63
2023-03-04T18:47:47.519Z,27.75
2023-03-04T18:50:15.344Z,22.73
2023-03-04T18:52:42.982Z,24.20
2023-03-04T18:55:12.998Z,25.55
2023-03-04T18:57:42.177Z,26.23
2023-03-04T19:00:12.757Z,25.25
2023-03-04T19:02:42.552Z,24.00
2023-03-04T19:05:13.380Z,27.38
2023-03-04T19:07:41.048Z,24.65
2023-03-04T19:10:09.532Z,25.38
2023-03-04T19:12:37.136Z,23.42
2023-03-04T19:15:06.043Z,24.65
2023-03-04T19:17:35.864Z,24.92
2023-03-04T19:20:03.828Z,23.77
2023-03-04T19:22:31.593Z,25.50
2023-03-04T19:24:59.205Z,25.35
2023-03-04T19:27:26.933Z,27.25
2023-03-04T19:29:54.522Z,28.05
2023-03-04T19:32:22.165Z,26.00
2023-03-04T19:34:51.036Z,27.45
2023-03-04T19:37:18.824Z,26.00
2023-03-04T19:39:46.508Z,26.10
2023-03-04T19:42:14.942Z,26.73
2023-03-04T19:44:44.774Z,27.50
2023-03-04T19:47:12.646Z,24.98
2023-03-04T19:49:40.237Z,26.15
2023-03-04T19:52:09.188Z,24.50
2023-03-04T19:54:36.857Z,25.25
2023-03-04T19:57:04.574Z,25.30
2023-03-04T19:59:32.192Z,27.00
2023-03-04T20:02:01.320Z,25.20
2023-03-04T20:04:28.960Z,26.17
2023-03-04T20:06:56.584Z,25.40
2023-03-04T20:09:25.535Z,24.23
2023-03-04T20:12:00.189Z,25.75
2023-03-04T20:14:28.484Z,23.85
2023-03-04T20:17:00.593Z,26.08
2023-03-04T20:19:28.444Z,25.10
2023-03-04T20:21:56.320Z,25.10
2023-03-04T20:24:25.772Z,24.52
2023-03-04T20:26:53.466Z,24.50
2023-03-04T20:29:21.086Z,27.02
2023-03-04T20:31:49.092Z,24.55
2023-03-04T20:34:16.731Z,24.88
2023-03-04T20:36:44.346Z,25.75
2023-03-04T20:39:27.489Z,25.60
2023-03-04T20:41:57.549Z,25.23
2023-03-04T20:44:25.281Z,25.08
2023-03-04T20:46:53.025Z,26.38
2023-03-04T20:49:23.949Z,25.88
2023-03-04T20:51:52.108Z,26.20
2023-03-04T20:54:20.112Z,26.38
2023-03-04T20:56:49.402Z,25.60
2023-03-04T20:59:18.883Z,24.95
2023-03-04T21:01:47.918Z,25.98
2023-03-04T21:04:15.982Z,25.17
2023-03-04T21:06:45.006Z,25.02
2023-03-04T21:09:14.785Z,24.80
2023-03-04T21:11:43.146Z,25.20
2023-03-04T21:14:14.109Z,23.73
2023-03-04T21:16:43.720Z,25.05
2023-03-04T21:19:15.088Z,25.85
2023-03-04T21:21:42.742Z,26.48
2023-03-04T21:24:12.637Z,26.55
2023-03-04T21:26:40.239Z,25.23
2023-03-04T21:29:07.932Z,24.60
2023-03-04T21:31:40.448Z,26.05
2023-03-04T21:34:13.757Z,25.75
2023-03-04T21:36:41.362Z,30.55
2023-03-04T21:39:08.995Z,26.05
2023-03-04T21:41:36.690Z,28.23
2023-03-04T21:44:04.300Z,24.90
2023-03-04T21:46:32.079Z,27.20
2023-03-04T21:48:59.713Z,25.52
2023-03-04T21:51:28.726Z,27.15
2023-03-04T21:53:56.395Z,25.75
2023-03-04T21:56:24.035Z,27.13
2023-03-04T21:58:51.620Z,27.08
2023-03-04T22:01:21.525Z,38.03
2023-03-04T22:03:51.407Z,35.80
2023-03-04T22:06:22.626Z,26.92
2023-03-04T22:08:52.706Z,27.77
2023-03-04T22:11:21.266Z,28.17
2023-03-04T22:13:50.536Z,26.42
2023-03-04T22:16:18.252Z,27.58
2023-03-04T22:18:45.890Z,28.40
2023-03-04T22:21:15.060Z,25.55
2023-03-04T22:23:42.844Z,26.75
2023-03-04T22:26:13.940Z,26.92
2023-03-04T22:28:42.009Z,28.80
2023-03-04T22:31:15.250Z,26.98
2023-03-04T22:33:43.869Z,27.50
2023-03-04T22:36:11.869Z,27.17
2023-03-04T22:38:39.968Z,27.48
2023-03-04T22:41:15.019Z,29.67
2023-03-04T22:43:42.734Z,30.33
2023-03-04T22:46:14.589Z,28.52
2023-03-04T22:48:42.258Z,30.20
2023-03-04T22:51:10.929Z,29.25
2023-03-04T22:53:38.853Z,27.67
2023-03-04T22:56:06.591Z,29.58
2023-03-04T22:58:35.550Z,27.02
2023-03-04T23:01:04.589Z,28.30
2023-03-04T23:03:32.245Z,26.83
2023-03-04T23:06:04.814Z,28.23
2023-03-04T23:08:32.385Z,27.73
2023-03-04T23:10:59.984Z,28.30
2023-03-04T23:13:27.569Z,29.85
2023-03-04T23:15:56.464Z,27.73
2023-03-04T23:18:24.062Z,29.35
2023-03-04T23:20:51.647Z,28.67
2023-03-04T23:23:19.275Z,29.85
2023-03-04T23:25:49.206Z,29.88
2023-03-04T23:28:16.820Z,28.60
2023-03-04T23:30:44.437Z,27.30
2023-03-04T23:33:13.400Z,29.55
2023-03-04T23:35:41.011Z,27.42
2023-03-04T23:38:08.737Z,27.27
2023-03-04T23:40:36.396Z,29.40
2023-03-04T23:43:03.993Z,27.35
2023-03-04T23:45:33.312Z,26.80
2023-03-04T23:48:00.901Z,25.95
2023-03-04T23:50:32.130Z,27.92
2023-03-04T23:52:59.716Z,28.00
2023-03-04T23:55:28.360Z,26.00
2023-03-04T23:57:55.910Z,27.75
